Time;durP1;ratioP1;P1;durP2;ratioP2;P2;SDS_P1;SDS_P2;PMS_P1;PMS_P2;Temp;Humidity;BMP_temperature;BMP_pressure;BME280_temperature;BME280_humidity;BME280_pressure;Samples;Min_cycle;Max_cycle;Signal;HPM_P1;HPM_P2
2022/04/16 00:01:47;;;;;;;;;;;7.10;99.90;;;;;;5092198;28;20012;-82
2022/04/16 00:04:14;;;;;;;;;;;7.10;99.90;;;;;;5071434;28;20004;-82
2022/04/16 00:06:41;;;;;;;;;;;7.10;99.90;;;;;;5071911;28;19925;-86
2022/04/16 00:09:07;;;;;;;;;;;7.10;99.90;;;;;;5069467;28;19925;-82
2022/04/16 00:11:34;;;;;;;;;;;7.10;99.90;;;;;;5063856;28;20382;-82
2022/04/16 00:14:03;;;;;;;;;;;7.00;99.90;;;;;;5066169;28;20471;-82
2022/04/16 00:16:30;;;;;;;;;;;7.10;99.90;;;;;;5072259;28;20015;-82
2022/04/16 00:18:56;;;;;;;;;;;7.00;99.90;;;;;;5063489;28;19925;-82
2022/04/16 00:21:23;;;;;;;;;;;7.00;99.90;;;;;;5072308;28;19978;-82
2022/04/16 00:23:50;;;;;;;;;;;7.00;99.90;;;;;;5067603;28;19928;-83
2022/04/16 00:26:16;;;;;;;;;;;7.00;99.90;;;;;;5072020;28;20371;-81
2022/04/16 00:28:43;;;;;;;;;;;6.90;99.90;;;;;;5071003;28;19928;-87
2022/04/16 00:31:10;;;;;;;;;;;6.80;99.90;;;;;;5069408;28;20282;-82
2022/04/16 00:33:37;;;;;;;;;;;6.80;99.90;;;;;;5065032;28;19932;-83
2022/04/16 00:36:04;;;;;;;;;;;6.80;99.90;;;;;;5060342;28;19943;-82
2022/04/16 00:38:30;;;;;;;;;;;6.80;99.90;;;;;;5058518;28;20368;-82
2022/04/16 00:40:57;;;;;;;;;;;6.80;99.90;;;;;;5068611;28;20375;-82
2022/04/16 00:43:23;;;;;;;;;;;6.70;99.90;;;;;;5071564;28;19924;-85
2022/04/16 00:45:50;;;;;;;;;;;6.80;99.90;;;;;;5063391;28;19924;-82
2022/04/16 00:48:16;;;;;;;;;;;6.80;99.90;;;;;;5065327;28;19924;-82
2022/04/16 00:50:43;;;;;;;;;;;6.80;99.90;;;;;;5068772;28;19932;-87
2022/04/16 00:53:10;;;;;;;;;;;6.70;99.90;;;;;;5067489;28;20011;-82
2022/04/16 00:55:36;;;;;;;;;;;6.70;99.90;;;;;;5069226;28;19970;-81
2022/04/16 00:58:03;;;;;;;;;;;6.70;99.90;;;;;;5070405;28;19935;-82
2022/04/16 01:00:29;;;;;;;;;;;6.80;99.90;;;;;;5070929;28;19931;-82
2022/04/16 01:02:56;;;;;;;;;;;6.80;99.90;;;;;;5070315;28;19931;-81
2022/04/16 01:05:23;;;;;;;;;;;6.80;99.90;;;;;;5070314;28;19935;-86
2022/04/16 01:07:53;;;;;;;;;;;6.80;99.90;;;;;;5066907;28;19931;-82
2022/04/16 01:10:19;;;;;;;;;;;6.80;99.90;;;;;;5067371;28;20604;-82
2022/04/16 01:12:46;;;;;;;;;;;6.80;99.90;;;;;;5072034;28;20809;-86
2022/04/16 01:15:13;;;;;;;;;;;6.80;99.90;;;;;;5071945;28;20407;-81
2022/04/16 01:17:39;;;;;;;;;;;6.90;99.90;;;;;;5065715;28;19964;-81
2022/04/16 01:20:06;;;;;;;;;;;6.90;99.90;;;;;;5063840;28;19924;-81
2022/04/16 01:22:32;;;;;;;;;;;6.90;99.90;;;;;;5070557;28;19928;-82
2022/04/16 01:24:59;;;;;;;;;;;6.90;99.90;;;;;;5070372;28;19925;-81
2022/04/16 01:27:26;;;;;;;;;;;7.00;99.90;;;;;;5063879;28;19932;-83
2022/04/16 01:29:53;;;;;;;;;;;7.00;99.90;;;;;;5061113;28;20375;-82
2022/04/16 01:32:20;;;;;;;;;;;7.20;99.90;;;;;;5101272;28;19929;-82
2022/04/16 01:34:46;;;;;;;;;;;7.20;99.90;;;;;;5070123;28;19929;-84
2022/04/16 01:37:13;;;;;;;;;;;7.30;99.90;;;;;;5070545;28;19933;-80
2022/04/16 01:39:39;;;;;;;;;;;7.30;99.90;;;;;;5062419;28;19925;-82
2022/04/16 01:42:06;;;;;;;;;;;7.40;99.90;;;;;;5068975;28;19944;-85
2022/04/16 01:44:32;;;;;;;;;;;7.30;99.90;;;;;;5068711;28;20153;-82
2022/04/16 01:46:59;;;;;;;;;;;7.40;99.90;;;;;;5065338;28;19924;-82
2022/04/16 01:49:26;;;;;;;;;;;7.40;99.90;;;;;;5070833;28;19932;-82
2022/04/16 01:51:54;;;;;;;;;;;7.40;99.90;;;;;;5070286;28;19990;-82
2022/04/16 01:54:21;;;;;;;;;;;7.50;99.90;;;;;;5064021;28;19924;-82
2022/04/16 01:56:47;;;;;;;;;;;7.50;99.90;;;;;;5068097;28;19925;-83
2022/04/16 01:59:14;;;;;;;;;;;7.60;99.90;;;;;;5062846;28;20016;-82
2022/04/16 02:01:40;;;;;;;;;;;7.60;99.90;;;;;;5064308;28;19931;-84
2022/04/16 02:04:07;;;;;;;;;;;7.60;99.90;;;;;;5065943;28;19924;-82
2022/04/16 02:06:35;;;;;;;;;;;7.70;99.90;;;;;;5070729;28;19951;-81
2022/04/16 02:09:03;;;;;;;;;;;7.70;99.90;;;;;;5069257;28;19931;-83
2022/04/16 02:11:29;;;;;;;;;;;7.70;99.90;;;;;;5064746;28;20016;-82
2022/04/16 02:13:56;;;;;;;;;;;7.70;99.90;;;;;;5071339;28;19925;-82
2022/04/16 02:16:22;;;;;;;;;;;7.80;99.90;;;;;;5074708;28;19925;-82
2022/04/16 02:18:49;;;;;;;;;;;7.70;99.90;;;;;;5065239;28;20004;-81
2022/04/16 02:21:16;;;;;;;;;;;7.70;99.90;;;;;;5064885;28;19931;-82
2022/04/16 02:23:43;;;;;;;;;;;7.70;99.90;;;;;;5066907;28;20019;-82
2022/04/16 02:26:10;;;;;;;;;;;7.70;99.90;;;;;;5074943;28;19925;-82
2022/04/16 02:28:36;;;;;;;;;;;7.70;99.90;;;;;;5073953;28;19928;-81
2022/04/16 02:31:03;;;;;;;;;;;7.70;99.90;;;;;;5064170;28;19924;-82
2022/04/16 02:33:30;;;;;;;;;;;7.70;99.90;;;;;;5073995;28;19924;-81
2022/04/16 02:35:57;;;;;;;;;;;7.70;99.90;;;;;;5068605;28;19925;-82
2022/04/16 02:38:23;;;;;;;;;;;7.70;99.90;;;;;;5062438;28;19925;-81
2022/04/16 02:40:50;;;;;;;;;;;7.70;99.90;;;;;;5073732;28;19925;-80
2022/04/16 02:43:17;;;;;;;;;;;7.70;99.90;;;;;;5062680;28;19935;-80
2022/04/16 02:48:39;;;;;;;;;;;7.60;99.90;;;;;;5022312;28;19925;-81
2022/04/16 02:51:06;;;;;;;;;;;7.60;99.90;;;;;;5052428;28;19925;-82
2022/04/16 02:53:32;;;;;;;;;;;7.60;99.90;;;;;;5074459;28;19956;-82
2022/04/16 02:55:59;;;;;;;;;;;7.60;99.90;;;;;;5067190;28;19925;-84
2022/04/16 02:58:25;;;;;;;;;;;7.50;99.90;;;;;;5069519;28;19924;-83
2022/04/16 03:00:54;;;;;;;;;;;7.50;99.90;;;;;;5071503;28;19924;-82
2022/04/16 03:03:21;;;;;;;;;;;7.50;99.90;;;;;;5067699;28;20367;-83
2022/04/16 03:05:48;;;;;;;;;;;7.50;99.90;;;;;;5074741;28;19932;-83
2022/04/16 03:08:15;;;;;;;;;;;7.50;99.90;;;;;;5063837;28;19933;-83
2022/04/16 03:10:42;;;;;;;;;;;7.50;99.90;;;;;;5074763;28;19925;-83
2022/04/16 03:13:09;;;;;;;;;;;7.50;99.90;;;;;;5074131;28;20011;-83
2022/04/16 03:18:20;;;;;;;;;;;7.40;99.90;;;;;;5072169;28;19959;-84
2022/04/16 03:20:47;;;;;;;;;;;7.50;99.90;;;;;;5060996;28;19925;-83
2022/04/16 03:23:14;;;;;;;;;;;7.30;99.90;;;;;;5072687;28;20328;-83
2022/04/16 03:25:41;;;;;;;;;;;7.30;99.90;;;;;;5073506;28;19929;-83
2022/04/16 03:28:07;;;;;;;;;;;7.30;99.90;;;;;;5072729;28;20375;-83
2022/04/16 03:30:34;;;;;;;;;;;7.40;99.90;;;;;;5073111;28;20110;-83
2022/04/16 03:33:00;;;;;;;;;;;7.30;99.90;;;;;;5072913;28;19924;-85
2022/04/16 03:35:27;;;;;;;;;;;7.30;99.90;;;;;;5072864;28;19925;-83
2022/04/16 03:37:54;;;;;;;;;;;7.30;99.90;;;;;;5065346;28;19963;-83
2022/04/16 03:40:23;;;;;;;;;;;7.30;99.90;;;;;;5073709;28;19921;-83
2022/04/16 03:42:50;;;;;;;;;;;7.20;99.90;;;;;;5064803;28;20034;-84
2022/04/16 03:45:18;;;;;;;;;;;7.30;99.90;;;;;;5072315;28;19932;-83
2022/04/16 03:47:45;;;;;;;;;;;7.20;99.90;;;;;;5072755;28;19967;-83
2022/04/16 03:50:12;;;;;;;;;;;7.20;99.90;;;;;;5071740;28;19925;-83
2022/04/16 03:52:38;;;;;;;;;;;7.20;99.90;;;;;;5063412;28;20299;-83
2022/04/16 04:00:47;;;;;;;;;;;7.20;99.90;;;;;;4957459;28;19930;-82
2022/04/16 04:03:14;;;;;;;;;;;7.20;99.90;;;;;;5020880;28;19924;-83
2022/04/16 04:05:41;;;;;;;;;;;7.20;99.90;;;;;;5073621;28;19978;-83
2022/04/16 04:08:07;;;;;;;;;;;7.20;99.90;;;;;;5067167;28;19924;-83
2022/04/16 04:10:34;;;;;;;;;;;7.20;99.90;;;;;;5072879;28;20013;-82
2022/04/16 04:13:00;;;;;;;;;;;7.20;99.90;;;;;;5066621;28;19947;-82
2022/04/16 04:15:27;;;;;;;;;;;7.20;99.90;;;;;;5071738;28;20284;-82
2022/04/16 04:17:54;;;;;;;;;;;7.20;99.90;;;;;;5072578;28;20383;-83
2022/04/16 04:20:20;;;;;;;;;;;7.10;99.90;;;;;;5071911;28;19928;-83
2022/04/16 04:22:47;;;;;;;;;;;7.20;99.90;;;;;;5072088;28;20299;-83
2022/04/16 04:25:13;;;;;;;;;;;7.20;99.90;;;;;;5069540;28;19925;-83
2022/04/16 04:27:40;;;;;;;;;;;7.10;99.90;;;;;;5071820;28;19925;-83
2022/04/16 04:30:06;;;;;;;;;;;7.20;99.90;;;;;;5099109;28;19976;-86
2022/04/16 04:32:33;;;;;;;;;;;7.10;99.90;;;;;;5072122;28;19928;-83
2022/04/16 04:34:59;;;;;;;;;;;7.10;99.90;;;;;;5059895;28;19925;-83
2022/04/16 04:37:26;;;;;;;;;;;7.10;99.90;;;;;;5072289;28;19924;-83
2022/04/16 04:39:52;;;;;;;;;;;7.10;99.90;;;;;;5071685;28;19924;-83
2022/04/16 04:42:21;;;;;;;;;;;7.10;99.90;;;;;;5059139;28;21309;-85
2022/04/16 04:44:47;;;;;;;;;;;7.00;99.90;;;;;;5069824;28;19925;-83
2022/04/16 04:47:14;;;;;;;;;;;7.10;99.90;;;;;;5069793;28;20286;-83
2022/04/16 04:49:40;;;;;;;;;;;7.20;99.90;;;;;;5061769;28;19924;-83
2022/04/16 04:52:07;;;;;;;;;;;7.20;99.90;;;;;;5064903;28;19928;-86
2022/04/16 04:54:33;;;;;;;;;;;7.30;99.90;;;;;;5071917;28;19931;-83
2022/04/16 04:57:00;;;;;;;;;;;7.40;99.90;;;;;;5063517;28;19931;-82
2022/04/16 04:59:27;;;;;;;;;;;7.40;99.90;;;;;;5071786;28;19921;-83
2022/04/16 05:01:53;;;;;;;;;;;7.40;99.90;;;;;;5067688;28;19924;-82
2022/04/16 05:04:20;;;;;;;;;;;7.40;99.90;;;;;;5070720;28;19930;-83
2022/04/16 05:06:46;;;;;;;;;;;7.40;99.90;;;;;;5071156;28;19928;-83
2022/04/16 05:09:13;;;;;;;;;;;7.30;99.90;;;;;;5066669;28;19924;-83
2022/04/16 05:11:39;;;;;;;;;;;7.40;99.90;;;;;;5057685;28;19925;-83
2022/04/16 05:14:06;;;;;;;;;;;7.40;99.90;;;;;;5065050;28;19924;-83
2022/04/16 05:16:33;;;;;;;;;;;7.40;99.90;;;;;;5060587;28;20016;-83
2022/04/16 05:18:59;;;;;;;;;;;7.40;99.90;;;;;;5071147;28;19960;-83
2022/04/16 05:21:26;;;;;;;;;;;7.40;99.90;;;;;;5064337;28;20399;-83
2022/04/16 05:23:52;;;;;;;;;;;7.50;99.90;;;;;;5070364;28;20396;-83
2022/04/16 05:26:19;;;;;;;;;;;7.50;99.90;;;;;;5070695;28;20280;-81
2022/04/16 05:28:45;;;;;;;;;;;7.50;99.90;;;;;;5070568;28;20414;-82
2022/04/16 05:31:12;;;;;;;;;;;7.40;99.90;;;;;;5071470;28;20253;-83
2022/04/16 05:36:23;;;;;;;;;;;7.60;99.90;;;;;;5071523;28;19924;-83
2022/04/16 05:38:49;;;;;;;;;;;7.60;99.90;;;;;;5070024;28;19924;-83
2022/04/16 05:41:16;;;;;;;;;;;7.60;99.90;;;;;;5071520;28;19929;-82
2022/04/16 05:43:42;;;;;;;;;;;7.70;99.90;;;;;;5070824;28;19947;-83
2022/04/16 05:46:09;;;;;;;;;;;7.70;99.90;;;;;;5071612;28;19932;-85
2022/04/16 05:48:36;;;;;;;;;;;7.80;99.90;;;;;;5069990;28;19964;-82
2022/04/16 05:51:02;;;;;;;;;;;7.90;99.90;;;;;;5070783;28;19924;-82
2022/04/16 05:53:29;;;;;;;;;;;8.10;99.90;;;;;;5071890;28;19935;-84
2022/04/16 05:55:55;;;;;;;;;;;8.20;99.90;;;;;;5081940;28;19928;-83
2022/04/16 05:58:22;;;;;;;;;;;8.20;99.90;;;;;;5083246;28;19924;-83
2022/04/16 06:00:49;;;;;;;;;;;8.40;99.90;;;;;;5085163;28;20001;-83
2022/04/16 06:03:15;;;;;;;;;;;8.40;99.90;;;;;;5080935;28;19935;-85
2022/04/16 06:05:42;;;;;;;;;;;8.60;99.90;;;;;;5084477;28;19930;-83
2022/04/16 06:08:09;;;;;;;;;;;8.60;99.90;;;;;;5082050;28;19924;-83
2022/04/16 06:10:37;;;;;;;;;;;8.70;99.90;;;;;;5084272;28;19930;-83
2022/04/16 06:13:03;;;;;;;;;;;8.80;99.90;;;;;;5081934;28;20003;-82
2022/04/16 06:15:30;;;;;;;;;;;8.80;99.90;;;;;;5084581;28;19924;-83
2022/04/16 06:17:57;;;;;;;;;;;8.90;99.90;;;;;;5084172;28;19931;-83
2022/04/16 06:20:24;;;;;;;;;;;9.00;99.90;;;;;;5080960;28;20008;-83
2022/04/16 06:22:51;;;;;;;;;;;9.00;99.90;;;;;;5084775;28;19931;-82
2022/04/16 06:25:18;;;;;;;;;;;9.10;99.90;;;;;;5082089;28;19978;-84
2022/04/16 06:27:44;;;;;;;;;;;9.10;99.90;;;;;;5082895;28;19924;-83
2022/04/16 06:30:11;;;;;;;;;;;9.20;99.90;;;;;;5083301;28;19958;-83
2022/04/16 06:32:38;;;;;;;;;;;9.30;99.90;;;;;;5079067;28;20402;-82
2022/04/16 06:35:05;;;;;;;;;;;9.40;99.90;;;;;;5080810;28;19978;-82
2022/04/16 06:37:31;;;;;;;;;;;9.30;99.90;;;;;;5082479;28;19971;-83
2022/04/16 06:39:58;;;;;;;;;;;9.30;99.90;;;;;;5080739;28;19931;-83
2022/04/16 06:42:25;;;;;;;;;;;9.20;99.90;;;;;;5080980;28;19990;-83
2022/04/16 06:44:51;;;;;;;;;;;9.20;99.90;;;;;;5077514;28;19928;-83
2022/04/16 06:47:18;;;;;;;;;;;8.90;99.90;;;;;;5085078;28;21649;-82
2022/04/16 06:49:45;;;;;;;;;;;9.10;99.90;;;;;;5087879;28;21086;-85
2022/04/16 06:52:12;;;;;;;;;;;9.10;99.90;;;;;;5085729;28;19925;-83
2022/04/16 06:54:39;;;;;;;;;;;9.50;99.90;;;;;;5078833;28;20003;-82
2022/04/16 06:57:05;;;;;;;;;;;9.50;99.90;;;;;;5079478;28;19924;-83
2022/04/16 06:59:32;;;;;;;;;;;9.40;99.90;;;;;;5082717;28;19925;-83
2022/04/16 07:01:58;;;;;;;;;;;9.60;99.90;;;;;;5087718;28;19978;-83
2022/04/16 07:04:25;;;;;;;;;;;9.60;99.90;;;;;;5083667;28;19924;-83
2022/04/16 07:06:51;;;;;;;;;;;9.60;99.90;;;;;;5088594;28;19932;-83
2022/04/16 07:09:18;;;;;;;;;;;10.00;99.90;;;;;;5085052;28;19931;-83
2022/04/16 07:11:45;;;;;;;;;;;10.10;99.90;;;;;;5081453;28;19928;-84
2022/04/16 07:14:11;;;;;;;;;;;9.70;99.90;;;;;;5088303;28;20403;-83
2022/04/16 07:16:38;;;;;;;;;;;10.00;99.90;;;;;;5082991;28;20001;-83
2022/04/16 07:19:05;;;;;;;;;;;10.20;99.90;;;;;;5081164;28;19979;-83
2022/04/16 07:21:31;;;;;;;;;;;10.20;99.90;;;;;;5076752;28;19932;-84
2022/04/16 07:23:58;;;;;;;;;;;10.20;99.90;;;;;;5081193;28;19924;-83
2022/04/16 07:26:24;;;;;;;;;;;10.00;99.90;;;;;;5083572;28;19932;-83
2022/04/16 07:28:51;;;;;;;;;;;10.20;99.90;;;;;;5086506;28;19954;-84
2022/04/16 07:31:17;;;;;;;;;;;10.30;99.90;;;;;;5079078;28;19924;-86
2022/04/16 07:33:44;;;;;;;;;;;10.20;99.90;;;;;;5079353;28;19924;-83
2022/04/16 07:36:10;;;;;;;;;;;10.20;99.90;;;;;;5075978;28;19925;-83
2022/04/16 07:38:37;;;;;;;;;;;10.30;99.90;;;;;;5113195;27;19986;-84
2022/04/16 07:41:03;;;;;;;;;;;10.50;99.90;;;;;;5086112;28;19924;-85
2022/04/16 07:43:30;;;;;;;;;;;10.50;99.90;;;;;;5078407;28;19928;-82
2022/04/16 07:45:56;;;;;;;;;;;10.50;99.90;;;;;;5082104;28;19924;-83
2022/04/16 07:48:24;;;;;;;;;;;10.50;99.60;;;;;;5082796;28;19924;-83
2022/04/16 07:50:50;;;;;;;;;;;10.40;98.50;;;;;;5089202;28;19959;-84
2022/04/16 07:53:17;;;;;;;;;;;10.70;98.50;;;;;;5082616;28;19966;-83
2022/04/16 07:55:44;;;;;;;;;;;10.60;98.40;;;;;;5078828;28;19925;-84
2022/04/16 07:58:10;;;;;;;;;;;10.60;96.50;;;;;;5087736;28;19931;-84
2022/04/16 08:00:37;;;;;;;;;;;10.80;97.80;;;;;;5084353;28;19928;-83
2022/04/16 08:03:03;;;;;;;;;;;10.80;95.80;;;;;;5085203;28;19924;-78
2022/04/16 08:05:30;;;;;;;;;;;10.70;95.70;;;;;;5083385;28;19924;-84
2022/04/16 08:07:56;;;;;;;;;;;10.50;95.70;;;;;;5086458;28;19959;-84
2022/04/16 08:10:23;;;;;;;;;;;10.60;95.20;;;;;;5081154;28;20391;-84
2022/04/16 08:12:50;;;;;;;;;;;10.70;94.30;;;;;;5080508;28;19932;-82
2022/04/16 08:15:16;;;;;;;;;;;10.60;95.20;;;;;;5075218;28;20403;-83
2022/04/16 08:17:43;;;;;;;;;;;10.70;94.20;;;;;;5085855;28;20010;-84
2022/04/16 08:20:10;;;;;;;;;;;10.90;94.50;;;;;;5084015;28;19931;-84
2022/04/16 08:22:38;;;;;;;;;;;10.70;94.50;;;;;;5081178;28;19928;-85
2022/04/16 08:27:49;;;;;;;;;;;10.90;93.40;;;;;;5086694;28;19924;-86
2022/04/16 08:30:15;;;;;;;;;;;11.00;95.00;;;;;;5085871;28;19930;-84
2022/04/16 08:32:42;;;;;;;;;;;11.00;93.40;;;;;;5085643;28;19920;-84
2022/04/16 08:35:09;;;;;;;;;;;10.90;93.40;;;;;;5082531;28;19928;-85
2022/04/16 08:37:35;;;;;;;;;;;10.90;91.50;;;;;;5084947;28;19925;-84
2022/04/16 08:40:02;;;;;;;;;;;11.00;93.80;;;;;;5081743;28;19928;-84
2022/04/16 08:42:28;;;;;;;;;;;11.40;94.70;;;;;;5086055;28;19931;-83
2022/04/16 08:44:55;;;;;;;;;;;11.40;94.00;;;;;;5082183;28;19924;-83
2022/04/16 08:47:21;;;;;;;;;;;11.40;95.00;;;;;;5088696;28;19947;-83
2022/04/16 08:49:48;;;;;;;;;;;11.70;94.70;;;;;;5085021;28;19932;-83
2022/04/16 08:52:14;;;;;;;;;;;11.90;94.50;;;;;;5083225;28;19924;-84
2022/04/16 08:54:41;;;;;;;;;;;11.50;92.10;;;;;;5082705;28;20006;-83
2022/04/16 08:57:07;;;;;;;;;;;11.30;92.50;;;;;;5084097;28;19935;-83
2022/04/16 08:59:34;;;;;;;;;;;11.70;93.60;;;;;;5083661;28;19939;-84
2022/04/16 09:02:01;;;;;;;;;;;11.50;92.20;;;;;;5081469;28;19928;-84
2022/04/16 09:04:27;;;;;;;;;;;11.50;91.80;;;;;;5070318;28;20026;-84
2022/04/16 09:06:54;;;;;;;;;;;11.50;91.40;;;;;;5069025;28;20318;-83
2022/04/16 09:09:20;;;;;;;;;;;11.70;92.90;;;;;;5060169;28;20249;-88
2022/04/16 09:11:48;;;;;;;;;;;11.80;92.60;;;;;;5065283;28;20376;-85
2022/04/16 09:14:14;;;;;;;;;;;11.70;90.00;;;;;;5071363;28;19978;-85
2022/04/16 09:16:41;;;;;;;;;;;11.70;90.90;;;;;;5063809;28;19932;-85
2022/04/16 09:19:07;;;;;;;;;;;11.70;91.00;;;;;;5071676;28;20384;-84
2022/04/16 09:21:34;;;;;;;;;;;11.50;89.60;;;;;;5106771;28;20391;-84
2022/04/16 09:24:00;;;;;;;;;;;11.60;91.50;;;;;;5105299;28;19943;-81
2022/04/16 09:26:27;;;;;;;;;;;11.50;90.00;;;;;;5073963;28;19935;-85
2022/04/16 09:28:54;;;;;;;;;;;11.60;88.00;;;;;;5070751;28;19924;-81
2022/04/16 09:31:20;;;;;;;;;;;11.70;88.00;;;;;;5071858;28;20342;-84
2022/04/16 09:33:47;;;;;;;;;;;11.60;89.00;;;;;;5070795;28;19925;-84
2022/04/16 09:36:13;;;;;;;;;;;11.70;88.60;;;;;;5071504;28;19967;-84
2022/04/16 09:38:42;;;;;;;;;;;11.60;90.30;;;;;;5062972;28;19931;-83
2022/04/16 09:41:09;;;;;;;;;;;11.80;87.30;;;;;;5068468;28;19931;-82
2022/04/16 09:43:36;;;;;;;;;;;11.80;83.80;;;;;;5069438;28;19924;-83
2022/04/16 09:46:03;;;;;;;;;;;12.00;86.80;;;;;;5065037;28;19986;-84
2022/04/16 09:48:29;;;;;;;;;;;11.90;82.70;;;;;;5059248;28;20364;-90
2022/04/16 09:50:56;;;;;;;;;;;12.00;86.90;;;;;;5071193;28;19932;-83
2022/04/16 09:53:22;;;;;;;;;;;12.00;87.70;;;;;;5058422;28;19928;-82
2022/04/16 09:55:49;;;;;;;;;;;12.00;88.40;;;;;;5065565;28;19929;-84
2022/04/16 09:58:15;;;;;;;;;;;12.00;87.90;;;;;;5070405;28;19924;-82
2022/04/16 10:00:42;;;;;;;;;;;11.90;85.60;;;;;;5070523;28;19930;-83
2022/04/16 10:03:08;;;;;;;;;;;11.90;81.30;;;;;;5071406;28;19971;-82
2022/04/16 10:05:35;;;;;;;;;;;11.80;81.60;;;;;;5104537;28;19924;-85
2022/04/16 10:08:02;;;;;;;;;;;11.80;84.50;;;;;;5072173;28;19931;-83
2022/04/16 10:10:30;;;;;;;;;;;11.80;82.60;;;;;;5066582;28;20306;-88
2022/04/16 10:12:59;;;;;;;;;;;11.90;84.70;;;;;;5071175;28;20365;-85
2022/04/16 10:15:26;;;;;;;;;;;11.80;80.20;;;;;;5071996;28;20015;-84
2022/04/16 10:17:52;;;;;;;;;;;11.70;81.20;;;;;;5063623;28;19932;-84
2022/04/16 10:20:19;;;;;;;;;;;11.80;81.50;;;;;;5070450;28;19925;-84
2022/04/16 10:22:46;;;;;;;;;;;11.90;83.90;;;;;;5069730;28;19928;-82
2022/04/16 10:25:12;;;;;;;;;;;12.10;85.30;;;;;;5069444;28;19947;-84
2022/04/16 10:27:39;;;;;;;;;;;12.30;83.10;;;;;;5061662;28;19924;-85
2022/04/16 10:30:05;;;;;;;;;;;12.40;82.00;;;;;;5065173;28;20265;-84
2022/04/16 10:32:32;;;;;;;;;;;12.20;76.40;;;;;;5068469;28;19925;-89
2022/04/16 10:34:58;;;;;;;;;;;12.30;75.30;;;;;;5067125;28;19939;-85
2022/04/16 10:37:25;;;;;;;;;;;12.10;74.10;;;;;;5074588;28;19932;-85
2022/04/16 10:39:51;;;;;;;;;;;12.10;72.70;;;;;;5062614;28;19925;-88
2022/04/16 10:42:18;;;;;;;;;;;12.20;73.80;;;;;;5069927;28;19928;-87
2022/04/16 10:44:44;;;;;;;;;;;12.30;69.40;;;;;;5078303;28;19924;-86
2022/04/16 10:47:11;;;;;;;;;;;12.40;69.90;;;;;;5089378;28;19924;-86
2022/04/16 10:49:38;;;;;;;;;;;12.40;66.70;;;;;;5084684;28;19928;-85
2022/04/16 10:52:04;;;;;;;;;;;12.60;70.80;;;;;;5071377;28;19924;-87
2022/04/16 10:54:32;;;;;;;;;;;12.80;67.70;;;;;;5060896;28;19929;-85
2022/04/16 10:56:59;;;;;;;;;;;12.80;67.80;;;;;;5062643;28;19970;-85
2022/04/16 10:59:25;;;;;;;;;;;13.00;70.30;;;;;;5073345;28;20015;-85
2022/04/16 11:01:52;;;;;;;;;;;12.60;73.50;;;;;;5072550;28;19924;-85
2022/04/16 11:04:19;;;;;;;;;;;12.50;70.70;;;;;;5073522;28;19932;-86
2022/04/16 11:06:47;;;;;;;;;;;12.70;69.60;;;;;;5071659;28;19960;-85
2022/04/16 11:09:14;;;;;;;;;;;12.70;70.90;;;;;;5080142;28;19982;-84
2022/04/16 11:11:41;;;;;;;;;;;12.90;69.20;;;;;;5073137;28;19924;-86
2022/04/16 11:14:07;;;;;;;;;;;13.00;68.50;;;;;;5081362;28;20279;-85
2022/04/16 11:16:34;;;;;;;;;;;12.90;68.70;;;;;;5067781;28;19936;-88
2022/04/16 11:19:01;;;;;;;;;;;13.10;70.10;;;;;;5066251;28;20016;-85
2022/04/16 11:21:29;;;;;;;;;;;13.10;67.00;;;;;;5068757;28;20483;-85
2022/04/16 11:23:55;;;;;;;;;;;13.00;66.80;;;;;;5071399;28;19931;-85
2022/04/16 11:34:46;;;;;;;;;;;13.10;63.70;;;;;;5064572;28;19924;-85
2022/04/16 11:37:12;;;;;;;;;;;13.10;63.20;;;;;;5072740;28;19930;-83
2022/04/16 11:39:39;;;;;;;;;;;13.10;62.30;;;;;;5072817;28;19925;-84
2022/04/16 11:42:07;;;;;;;;;;;13.10;62.30;;;;;;5072284;28;19931;-85
2022/04/16 11:44:34;;;;;;;;;;;13.10;59.10;;;;;;5069803;28;19982;-83
2022/04/16 11:47:02;;;;;;;;;;;13.30;64.00;;;;;;5069414;28;20379;-82
2022/04/16 11:49:28;;;;;;;;;;;13.50;63.00;;;;;;5074215;28;20425;-82
2022/04/16 11:51:55;;;;;;;;;;;13.50;59.80;;;;;;5071520;28;19928;-83
2022/04/16 11:54:21;;;;;;;;;;;13.40;59.90;;;;;;5072799;28;19924;-82
2022/04/16 11:56:48;;;;;;;;;;;13.40;56.80;;;;;;5102598;28;19932;-81
2022/04/16 11:59:14;;;;;;;;;;;13.30;58.20;;;;;;5066298;28;19925;-84
2022/04/16 12:01:41;;;;;;;;;;;13.60;57.90;;;;;;5060560;28;20289;-82
2022/04/16 12:04:08;;;;;;;;;;;13.70;56.80;;;;;;5106814;28;19929;-81
2022/04/16 12:06:35;;;;;;;;;;;13.90;58.30;;;;;;5071531;28;19967;-83
2022/04/16 12:09:01;;;;;;;;;;;13.70;55.10;;;;;;5071356;28;19974;-82
2022/04/16 12:11:28;;;;;;;;;;;13.70;57.00;;;;;;5063737;28;20304;-83
2022/04/16 12:13:55;;;;;;;;;;;13.70;56.60;;;;;;5070893;28;19931;-82
2022/04/16 12:16:21;;;;;;;;;;;13.70;54.80;;;;;;5071582;28;19924;-83
2022/04/16 12:18:48;;;;;;;;;;;13.60;56.00;;;;;;5070542;28;19940;-83
2022/04/16 12:21:14;;;;;;;;;;;13.40;52.20;;;;;;5106443;28;19925;-81
2022/04/16 12:23:43;;;;;;;;;;;13.50;56.20;;;;;;5071075;28;20367;-84
2022/04/16 12:26:10;;;;;;;;;;;13.60;56.00;;;;;;5072750;28;19925;-82
2022/04/16 12:28:36;;;;;;;;;;;13.60;55.50;;;;;;5072017;28;19924;-85
2022/04/16 12:31:03;;;;;;;;;;;13.60;57.10;;;;;;5071066;28;19934;-82
2022/04/16 12:33:29;;;;;;;;;;;13.80;56.00;;;;;;5068723;28;19925;-81
2022/04/16 12:35:57;;;;;;;;;;;13.80;58.00;;;;;;5064377;28;19925;-81
2022/04/16 12:38:25;;;;;;;;;;;13.90;55.80;;;;;;5067701;28;19924;-82
2022/04/16 12:40:51;;;;;;;;;;;14.00;54.80;;;;;;5070688;28;20344;-83
2022/04/16 12:43:18;;;;;;;;;;;14.10;55.60;;;;;;5071396;28;20326;-86
2022/04/16 12:45:44;;;;;;;;;;;14.00;56.00;;;;;;5070318;28;19924;-83
2022/04/16 12:48:11;;;;;;;;;;;14.00;54.80;;;;;;5062716;28;19925;-81
2022/04/16 12:50:37;;;;;;;;;;;14.10;56.80;;;;;;5072199;28;19924;-83
2022/04/16 12:53:04;;;;;;;;;;;14.20;52.40;;;;;;5070152;28;19933;-83
2022/04/16 12:55:31;;;;;;;;;;;14.20;54.10;;;;;;5071084;28;19925;-79
2022/04/16 12:57:57;;;;;;;;;;;14.10;53.30;;;;;;5070544;28;19931;-80
2022/04/16 13:00:24;;;;;;;;;;;14.20;53.40;;;;;;5071961;28;19931;-81
2022/04/16 13:02:51;;;;;;;;;;;14.10;51.60;;;;;;5070175;28;19924;-82
2022/04/16 13:05:17;;;;;;;;;;;14.00;51.90;;;;;;5070269;28;19925;-82
2022/04/16 13:07:44;;;;;;;;;;;14.00;52.70;;;;;;5058490;28;19925;-82
2022/04/16 13:10:10;;;;;;;;;;;14.10;54.90;;;;;;5100690;28;19928;-82
2022/04/16 13:12:37;;;;;;;;;;;14.10;51.90;;;;;;5070832;28;19924;-83
2022/04/16 13:15:04;;;;;;;;;;;14.00;52.00;;;;;;5069958;28;19931;-85
2022/04/16 13:17:30;;;;;;;;;;;13.90;52.00;;;;;;5063940;28;19924;-83
2022/04/16 13:19:57;;;;;;;;;;;14.00;53.70;;;;;;5065194;28;20011;-83
2022/04/16 13:22:23;;;;;;;;;;;13.70;50.20;;;;;;5061211;28;20375;-82
2022/04/16 13:24:50;;;;;;;;;;;13.90;53.80;;;;;;5062888;28;20007;-83
2022/04/16 13:27:16;;;;;;;;;;;13.80;54.50;;;;;;5070447;28;19924;-83
2022/04/16 13:29:43;;;;;;;;;;;13.90;54.50;;;;;;5070506;28;19928;-87
2022/04/16 13:32:10;;;;;;;;;;;14.00;56.90;;;;;;5073436;28;20007;-83
2022/04/16 13:34:36;;;;;;;;;;;14.00;56.20;;;;;;5065779;28;19928;-83
2022/04/16 13:37:03;;;;;;;;;;;14.00;53.70;;;;;;5068796;28;20009;-82
2022/04/16 13:42:14;;;;;;;;;;;14.00;55.80;;;;;;5093543;28;19925;-83
2022/04/16 13:44:41;;;;;;;;;;;14.00;53.20;;;;;;5069552;28;19924;-81
2022/04/16 13:47:08;;;;;;;;;;;13.80;52.20;;;;;;5072098;28;19931;-81
2022/04/16 13:49:35;;;;;;;;;;;13.90;54.00;;;;;;5065184;28;19981;-81
2022/04/16 13:52:02;;;;;;;;;;;13.80;53.10;;;;;;5077423;28;19924;-83
2022/04/16 13:54:29;;;;;;;;;;;14.00;53.80;;;;;;5073987;28;19935;-83
2022/04/16 13:56:56;;;;;;;;;;;14.00;55.50;;;;;;5064489;28;19969;-84
2022/04/16 13:59:23;;;;;;;;;;;14.00;55.40;;;;;;5072282;28;20337;-83
2022/04/16 14:01:50;;;;;;;;;;;13.90;56.30;;;;;;5071583;28;19936;-84
2022/04/16 14:04:16;;;;;;;;;;;14.00;58.00;;;;;;5080956;28;20337;-83
2022/04/16 14:06:43;;;;;;;;;;;13.90;56.30;;;;;;5060015;28;19924;-84
2022/04/16 14:09:09;;;;;;;;;;;14.00;58.40;;;;;;5063453;28;19932;-84
2022/04/16 14:11:36;;;;;;;;;;;14.00;56.70;;;;;;5076055;28;19932;-83
2022/04/16 14:14:03;;;;;;;;;;;14.00;57.30;;;;;;5077592;28;19924;-83
2022/04/16 14:16:29;;;;;;;;;;;14.00;59.80;;;;;;5078065;28;20372;-82
2022/04/16 14:18:56;;;;;;;;;;;14.10;56.70;;;;;;5072157;28;20303;-85
2022/04/16 14:21:23;;;;;;;;;;;13.80;56.10;;;;;;5074511;28;19928;-84
2022/04/16 14:23:49;;;;;;;;;;;13.70;56.40;;;;;;5074777;28;19930;-85
2022/04/16 14:26:16;;;;;;;;;;;13.60;55.00;;;;;;5073318;28;19932;-83
2022/04/16 14:28:42;;;;;;;;;;;13.50;57.30;;;;;;5073005;28;19924;-85
2022/04/16 14:31:09;;;;;;;;;;;13.60;55.30;;;;;;5074567;28;19937;-85
2022/04/16 14:33:38;;;;;;;;;;;13.50;56.20;;;;;;5074293;28;19996;-85
2022/04/16 14:36:04;;;;;;;;;;;13.40;53.50;;;;;;5056764;28;19928;-85
2022/04/16 14:38:32;;;;;;;;;;;13.50;55.50;;;;;;5066657;28;20480;-85
2022/04/16 14:41:09;;;;;;;;;;;13.50;56.70;;;;;;5076254;28;20367;-84
2022/04/16 14:43:36;;;;;;;;;;;13.50;56.90;;;;;;5059124;28;19928;-84
2022/04/16 14:46:04;;;;;;;;;;;13.50;53.30;;;;;;5063879;28;19933;-85
2022/04/16 14:48:30;;;;;;;;;;;13.50;55.20;;;;;;5065941;28;19975;-85